Time;durP1;ratioP1;P1;durP2;ratioP2;P2;SDS_P1;SDS_P2;PMS_P1;PMS_P2;Temp;Humidity;BMP_temperature;BMP_pressure;BME280_temperature;BME280_humidity;BME280_pressure;Samples;Min_cycle;Max_cycle;Signal;HPM_P1;HPM_P2
2023/10/16 00:01:07;;;;;;;11.70;6.47;;;2.80;99.90;;;;;;5055714;28;20583;-82
2023/10/16 00:03:32;;;;;;;13.75;5.57;;;2.80;99.90;;;;;;5055929;28;20257;-82
2023/10/16 00:05:58;;;;;;;9.57;5.77;;;2.70;99.90;;;;;;5021411;28;20586;-81
2023/10/16 00:08:24;;;;;;;8.93;6.03;;;2.70;99.90;;;;;;5055876;28;20196;-81
2023/10/16 00:10:58;;;;;;;10.13;6.40;;;2.70;99.90;;;;;;5038057;28;20447;-82
2023/10/16 00:13:28;;;;;;;9.57;5.75;;;2.70;99.90;;;;;;5038086;28;20192;-82
2023/10/16 00:15:55;;;;;;;10.23;6.45;;;2.70;99.90;;;;;;5038604;28;20182;-81
2023/10/16 00:18:23;;;;;;;12.60;6.07;;;2.70;99.90;;;;;;5021231;28;20178;-81
2023/10/16 00:20:51;;;;;;;9.75;5.45;;;2.60;99.90;;;;;;5055326;28;20173;-81
2023/10/16 00:23:17;;;;;;;8.00;5.68;;;2.60;99.90;;;;;;5055345;28;20177;-81
2023/10/16 00:25:44;;;;;;;8.07;5.93;;;2.50;99.90;;;;;;5055992;28;20192;-82
2023/10/16 00:28:11;;;;;;;12.55;6.40;;;2.60;99.90;;;;;;5021018;28;20192;-81
2023/10/16 00:30:38;;;;;;;8.43;5.15;;;2.50;99.90;;;;;;5037965;28;20212;-82
2023/10/16 00:33:06;;;;;;;8.65;5.97;;;2.60;99.90;;;;;;5055221;28;20625;-81
2023/10/16 00:35:32;;;;;;;7.57;5.63;;;2.60;99.90;;;;;;5055678;28;20185;-82
2023/10/16 00:37:58;;;;;;;5.57;5.03;;;2.60;99.90;;;;;;5054934;28;20232;-81
2023/10/16 00:40:33;;;;;;;12.88;5.70;;;2.60;99.90;;;;;;5037734;28;20549;-81
2023/10/16 00:43:11;;;;;;;10.05;5.68;;;2.50;99.90;;;;;;5036800;28;20279;-82
2023/10/16 00:45:48;;;;;;;6.35;5.45;;;2.50;99.90;;;;;;5041178;28;20234;-82
2023/10/16 00:48:16;;;;;;;10.13;6.05;;;2.50;99.90;;;;;;5041051;28;20284;-82
2023/10/16 00:50:48;;;;;;;13.40;7.32;;;2.50;99.90;;;;;;5043415;28;20209;-82
2023/10/16 00:53:15;;;;;;;8.65;6.43;;;2.50;99.90;;;;;;5063854;28;20169;-82
2023/10/16 00:55:41;;;;;;;14.48;6.22;;;2.40;99.90;;;;;;5041789;28;20242;-81
2023/10/16 00:58:08;;;;;;;12.23;6.27;;;2.40;99.90;;;;;;5041658;28;20215;-81
2023/10/16 01:00:36;;;;;;;10.85;6.50;;;2.30;99.90;;;;;;5059167;28;20426;-81
2023/10/16 01:03:04;;;;;;;18.63;6.85;;;2.30;99.90;;;;;;5041445;28;20189;-81
2023/10/16 01:05:33;;;;;;;9.65;6.35;;;2.30;99.90;;;;;;5059432;28;20181;-81
2023/10/16 01:08:02;;;;;;;11.25;7.20;;;2.20;99.90;;;;;;5041255;28;20182;-80
2023/10/16 01:10:32;;;;;;;9.48;5.72;;;2.30;99.90;;;;;;5024690;28;20181;-81
2023/10/16 01:12:58;;;;;;;12.45;7.00;;;2.30;99.90;;;;;;5040956;28;20276;-81
2023/10/16 01:15:25;;;;;;;7.90;6.78;;;2.20;99.90;;;;;;5025051;28;20671;-81
2023/10/16 01:17:52;;;;;;;9.10;6.05;;;2.20;99.90;;;;;;5059263;28;20240;-81
2023/10/16 01:20:18;;;;;;;7.85;5.75;;;2.20;99.90;;;;;;5058626;28;20196;-81
2023/10/16 01:22:45;;;;;;;12.18;7.15;;;2.10;99.90;;;;;;5058851;28;20173;-81
2023/10/16 01:25:11;;;;;;;9.48;6.72;;;2.10;99.90;;;;;;5058934;28;20181;-81
2023/10/16 01:27:40;;;;;;;7.45;5.50;;;2.20;99.90;;;;;;5024472;28;20184;-81
2023/10/16 01:30:06;;;;;;;11.10;6.25;;;2.20;99.90;;;;;;5058718;28;20311;-80
2023/10/16 01:32:32;;;;;;;6.68;5.18;;;2.10;99.90;;;;;;5041022;28;20181;-82
2023/10/16 01:34:59;;;;;;;8.87;5.53;;;2.10;99.90;;;;;;5024371;28;20694;-81
2023/10/16 01:37:25;;;;;;;8.85;6.63;;;2.00;99.90;;;;;;5040626;28;20649;-81
2023/10/16 01:39:55;;;;;;;11.13;6.75;;;2.00;99.90;;;;;;5040863;28;20272;-81
2023/10/16 01:42:21;;;;;;;11.40;6.40;;;2.00;99.90;;;;;;5058513;28;20199;-81
2023/10/16 01:44:48;;;;;;;12.23;7.00;;;2.00;99.90;;;;;;5040640;28;20684;-81
2023/10/16 01:47:15;;;;;;;16.00;6.93;;;2.00;99.90;;;;;;5024179;28;20214;-81
2023/10/16 01:49:42;;;;;;;10.05;6.60;;;1.90;99.90;;;;;;5024184;28;20543;-82
2023/10/16 01:52:11;;;;;;;8.57;5.97;;;1.90;99.90;;;;;;5058210;28;20169;-81
2023/10/16 01:54:40;;;;;;;9.32;5.63;;;1.90;99.90;;;;;;5041656;28;20192;-81
2023/10/16 01:57:10;;;;;;;9.98;6.43;;;1.90;99.90;;;;;;5057664;28;20201;-81
2023/10/16 01:59:47;;;;;;;10.80;6.20;;;1.90;99.90;;;;;;5040982;28;20640;-81
2023/10/16 02:02:13;;;;;;;12.32;6.70;;;1.90;99.90;;;;;;5058338;28;20180;-81
2023/10/16 02:04:40;;;;;;;12.00;6.63;;;1.90;99.90;;;;;;5024223;28;20640;-81
2023/10/16 02:07:09;;;;;;;9.48;7.13;;;1.80;99.90;;;;;;5040518;28;20416;-80
2023/10/16 02:09:38;;;;;;;11.25;6.80;;;1.80;99.90;;;;;;5034857;28;20555;-81
2023/10/16 02:12:14;;;;;;;13.23;7.32;;;1.80;99.90;;;;;;5037359;28;20182;-81
2023/10/16 02:14:40;;;;;;;11.48;6.97;;;1.80;99.90;;;;;;5038576;28;20165;-81
2023/10/16 02:17:14;;;;;;;9.63;6.63;;;1.80;99.90;;;;;;5019775;28;20216;-81
2023/10/16 02:19:43;;;;;;;8.32;6.50;;;1.80;99.90;;;;;;5037304;28;20244;-81
2023/10/16 02:22:09;;;;;;;9.23;7.07;;;1.80;99.90;;;;;;5037008;28;20184;-81
2023/10/16 02:24:37;;;;;;;16.85;9.07;;;1.80;99.90;;;;;;5038271;28;20200;-81
2023/10/16 02:27:03;;;;;;;12.38;8.45;;;1.80;99.90;;;;;;5019786;28;20187;-80
2023/10/16 02:29:31;;;;;;;13.45;7.18;;;1.70;99.90;;;;;;5020378;28;20212;-81
2023/10/16 02:31:58;;;;;;;11.02;6.43;;;1.70;99.90;;;;;;5028716;28;20217;-81
2023/10/16 02:34:24;;;;;;;9.00;7.50;;;1.70;99.90;;;;;;5020378;28;20232;-81
2023/10/16 02:36:54;;;;;;;10.30;7.30;;;1.60;99.90;;;;;;5050210;28;20236;-81
2023/10/16 02:39:35;;;;;;;20.20;9.88;;;1.60;99.90;;;;;;5057197;28;20250;-82
2023/10/16 02:42:06;;;;;;;11.85;7.88;;;1.60;99.90;;;;;;5044219;28;20173;-82
2023/10/16 02:44:33;;;;;;;9.95;7.18;;;1.60;99.90;;;;;;5061094;28;20164;-81
2023/10/16 02:46:58;;;;;;;11.07;7.30;;;1.60;99.90;;;;;;5034512;28;20276;-81
2023/10/16 02:49:24;;;;;;;9.93;7.87;;;1.60;99.90;;;;;;5037489;28;20217;-82
2023/10/16 02:51:52;;;;;;;15.77;7.67;;;1.60;99.90;;;;;;5003485;28;20193;-82
2023/10/16 02:54:18;;;;;;;14.80;8.52;;;1.60;99.90;;;;;;5037438;28;20578;-81
2023/10/16 02:56:44;;;;;;;11.75;7.10;;;1.60;99.90;;;;;;5020194;28;20264;-82
2023/10/16 02:59:11;;;;;;;11.50;7.93;;;1.60;99.90;;;;;;5003428;28;20194;-81
2023/10/16 03:01:37;;;;;;;11.05;7.35;;;1.60;99.90;;;;;;5048448;28;20928;-81
2023/10/16 03:04:05;;;;;;;14.30;7.10;;;1.60;99.90;;;;;;5039650;28;20181;-82
2023/10/16 03:06:31;;;;;;;16.08;8.30;;;1.60;99.90;;;;;;5039423;28;20430;-82
2023/10/16 03:09:15;;;;;;;12.38;7.60;;;1.60;99.90;;;;;;5006963;28;20193;-81
2023/10/16 03:11:41;;;;;;;15.77;9.02;;;1.60;99.90;;;;;;5057462;28;20173;-82
2023/10/16 03:14:06;;;;;;;17.30;8.70;;;1.60;99.90;;;;;;5056329;28;20343;-80
2023/10/16 03:16:36;;;;;;;18.20;7.43;;;1.60;99.90;;;;;;5038989;28;20208;-82
2023/10/16 03:19:09;;;;;;;10.00;7.70;;;1.50;99.90;;;;;;5022655;28;20199;-82
2023/10/16 03:21:35;;;;;;;10.43;7.85;;;1.50;99.90;;;;;;5056433;28;20681;-82
2023/10/16 03:24:01;;;;;;;11.07;7.03;;;1.50;99.90;;;;;;5056982;28;20262;-82
2023/10/16 03:26:30;;;;;;;11.30;7.80;;;1.50;99.90;;;;;;5038463;28;20193;-82
2023/10/16 03:28:56;;;;;;;13.85;8.50;;;1.50;99.90;;;;;;5057089;28;20183;-83
2023/10/16 03:31:23;;;;;;;11.95;7.45;;;1.50;99.90;;;;;;5055905;28;20176;-82
2023/10/16 03:33:49;;;;;;;10.70;7.93;;;1.50;99.90;;;;;;5056160;28;20631;-83
2023/10/16 03:36:15;;;;;;;13.63;7.43;;;1.50;99.90;;;;;;5021583;28;20271;-83
2023/10/16 03:38:41;;;;;;;15.37;7.27;;;1.50;99.90;;;;;;5036333;28;20479;-82
2023/10/16 03:41:27;;;;;;;13.53;9.27;;;1.50;99.90;;;;;;5012308;28;20423;-83
2023/10/16 03:43:57;;;;;;;10.95;8.25;;;1.50;99.90;;;;;;5055691;28;20422;-82
2023/10/16 03:46:26;;;;;;;12.50;9.15;;;1.50;99.90;;;;;;5038305;28;20204;-82
2023/10/16 03:48:52;;;;;;;15.43;7.95;;;1.50;99.90;;;;;;5038231;28;20188;-83
2023/10/16 03:51:18;;;;;;;11.90;7.20;;;1.40;99.90;;;;;;5037808;28;20186;-83
2023/10/16 03:53:46;;;;;;;11.73;7.10;;;1.40;99.90;;;;;;5038010;28;20931;-83
2023/10/16 03:56:13;;;;;;;11.23;7.70;;;1.40;99.90;;;;;;5037775;28;20287;-83
2023/10/16 03:58:43;;;;;;;10.30;7.68;;;1.40;99.90;;;;;;5037634;28;20552;-83
2023/10/16 04:01:10;;;;;;;12.27;7.88;;;1.40;99.90;;;;;;5055255;28;20186;-82
2023/10/16 04:03:46;;;;;;;9.35;6.72;;;1.40;99.90;;;;;;5021455;28;20556;-83
2023/10/16 04:06:19;;;;;;;14.90;8.48;;;1.40;99.90;;;;;;5022707;28;20198;-82
2023/10/16 04:08:47;;;;;;;10.82;7.68;;;1.40;99.90;;;;;;5038213;28;20191;-83
2023/10/16 04:11:13;;;;;;;9.85;7.07;;;1.40;99.90;;;;;;5055545;28;20184;-82
2023/10/16 04:13:47;;;;;;;11.20;7.93;;;1.40;99.90;;;;;;5021914;28;20564;-82
2023/10/16 04:16:25;;;;;;;10.95;7.28;;;1.40;99.90;;;;;;5018701;28;20193;-83
2023/10/16 04:18:51;;;;;;;11.95;7.15;;;1.40;99.90;;;;;;5020425;28;20197;-83
2023/10/16 04:31:56;;;;;;;14.73;8.50;;;1.50;99.90;;;;;;5020084;28;20184;-83
2023/10/16 04:50:29;;;;;;;8.32;5.68;;;1.30;99.90;;;;;;5035723;28;20181;-83
2023/10/16 05:13:55;;;;;;;11.50;6.53;;;1.30;99.90;;;;;;5018244;28;20245;-82
2023/10/16 05:16:30;;;;;;;14.98;6.22;;;1.30;99.90;;;;;;5001174;28;20193;-82
2023/10/16 06:16:17;;;;;;;11.85;6.75;;;1.60;99.90;;;;;;5057634;28;20184;-81
2023/10/16 06:18:47;;;;;;;12.90;6.47;;;1.70;99.90;;;;;;5024447;28;20188;-81
2023/10/16 06:21:14;;;;;;;10.55;6.53;;;1.70;99.90;;;;;;5057770;28;20216;-81
2023/10/16 06:23:48;;;;;;;9.35;5.95;;;1.80;99.90;;;;;;5036843;28;20543;-86
2023/10/16 06:26:15;;;;;;;8.73;5.40;;;1.80;99.90;;;;;;5039489;28;20207;-85
2023/10/16 06:28:51;;;;;;;10.57;5.82;;;1.90;99.90;;;;;;5047281;28;20192;-85
2023/10/16 06:31:22;;;;;;;8.07;4.80;;;1.90;99.90;;;;;;5049242;28;20182;-82
2023/10/16 06:33:53;;;;;;;8.27;5.50;;;1.90;99.90;;;;;;5037115;28;20177;-85
2023/10/16 06:36:20;;;;;;;13.18;5.97;;;2.00;99.90;;;;;;5004011;28;20182;-85
2023/10/16 06:38:47;;;;;;;8.65;5.50;;;2.00;99.90;;;;;;5019569;28;20229;-84
2023/10/16 06:41:15;;;;;;;8.48;5.95;;;2.10;99.90;;;;;;5002536;28;20184;-85
2023/10/16 06:43:41;;;;;;;13.15;6.05;;;2.10;99.90;;;;;;5005639;28;20634;-85
2023/10/16 06:46:09;;;;;;;9.30;6.03;;;2.20;99.90;;;;;;5003602;28;20199;-85
2023/10/16 06:48:37;;;;;;;14.70;6.00;;;2.20;99.90;;;;;;5003508;28;20182;-84
2023/10/16 06:51:04;;;;;;;15.75;6.20;;;2.30;99.90;;;;;;5002818;28;20189;-84
2023/10/16 06:53:30;;;;;;;8.88;6.25;;;2.40;99.90;;;;;;5018586;28;20231;-84
2023/10/16 06:55:56;;;;;;;9.68;6.50;;;2.40;99.90;;;;;;5019472;28;20247;-84
2023/10/16 06:58:21;;;;;;;6.90;4.80;;;2.50;99.90;;;;;;5037667;28;20220;-82
2023/10/16 07:00:55;;;;;;;9.03;6.20;;;2.50;99.90;;;;;;5056086;28;20260;-83
2023/10/16 07:03:20;;;;;;;8.18;5.70;;;2.60;99.90;;;;;;5021431;28;20270;-83
2023/10/16 07:05:48;;;;;;;8.87;6.60;;;2.60;99.90;;;;;;5055809;28;20290;-83
2023/10/16 07:08:19;;;;;;;10.20;6.65;;;2.70;99.90;;;;;;5038793;28;20181;-84
2023/10/16 07:11:03;;;;;;;9.75;5.80;;;2.80;99.90;;;;;;5057633;28;20181;-83
2023/10/16 07:13:30;;;;;;;9.95;5.82;;;2.90;99.90;;;;;;5050808;28;20188;-84
2023/10/16 07:16:04;;;;;;;10.75;6.70;;;3.00;99.90;;;;;;5042666;28;20178;-84
2023/10/16 07:18:35;;;;;;;12.38;5.53;;;3.00;99.90;;;;;;5055672;28;20570;-83
2023/10/16 07:23:34;;;;;;;13.05;6.53;;;3.20;99.90;;;;;;5038263;28;20180;-83
2023/10/16 07:26:01;;;;;;;11.75;7.22;;;3.30;99.90;;;;;;5055676;28;20177;-83
2023/10/16 07:28:28;;;;;;;10.48;5.93;;;3.40;99.90;;;;;;5037899;28;20210;-83
2023/10/16 07:30:59;;;;;;;20.42;7.72;;;3.50;99.90;;;;;;5055542;28;20560;-83
2023/10/16 07:33:28;;;;;;;11.65;6.30;;;3.60;99.90;;;;;;5037352;28;20246;-83
2023/10/16 07:35:55;;;;;;;13.48;7.28;;;3.60;99.90;;;;;;5049223;28;20193;-83
2023/10/16 07:38:25;;;;;;;9.80;7.05;;;3.70;99.90;;;;;;5036059;28;20724;-83
2023/10/16 07:40:53;;;;;;;10.10;6.72;;;3.90;99.90;;;;;;5018219;28;20208;-83
2023/10/16 07:43:26;;;;;;;12.45;6.80;;;4.00;99.90;;;;;;5054583;28;20188;-83
2023/10/16 07:48:41;;;;;;;14.05;5.80;;;4.00;99.90;;;;;;5055466;28;20177;-83
2023/10/16 07:51:08;;;;;;;15.95;7.82;;;4.20;99.90;;;;;;5055106;28;20177;-83
2023/10/16 07:53:35;;;;;;;10.82;6.90;;;4.20;99.90;;;;;;5035803;28;20521;-84
2023/10/16 07:56:02;;;;;;;10.52;7.10;;;4.30;99.90;;;;;;5036643;28;20180;-83
2023/10/16 07:58:34;;;;;;;13.93;7.00;;;4.30;99.90;;;;;;5036533;28;20222;-83
2023/10/16 08:03:36;;;;;;;13.93;6.60;;;4.50;99.90;;;;;;5054478;28;20208;-83
2023/10/16 08:06:05;;;;;;;13.00;6.40;;;4.50;99.90;;;;;;5054804;28;20516;-83
2023/10/16 08:08:37;;;;;;;9.55;6.20;;;4.50;99.90;;;;;;5036337;28;20544;-84
2023/10/16 08:11:14;;;;;;;9.00;7.13;;;4.60;99.90;;;;;;5054903;28;20574;-84
2023/10/16 08:13:48;;;;;;;22.30;8.02;;;4.70;99.90;;;;;;5037709;28;20177;-85
2023/10/16 08:16:18;;;;;;;11.50;7.00;;;4.80;99.90;;;;;;5054795;28;20536;-85
2023/10/16 08:18:51;;;;;;;15.45;6.90;;;4.90;99.90;;;;;;5055326;28;20187;-85
2023/10/16 08:21:26;;;;;;;14.30;6.95;;;5.00;99.90;;;;;;5037486;28;20205;-85
2023/10/16 08:23:57;;;;;;;16.00;7.85;;;5.10;99.90;;;;;;5037211;28;20172;-85
2023/10/16 08:26:29;;;;;;;14.73;7.45;;;5.20;99.90;;;;;;5054420;28;20199;-85
2023/10/16 08:29:17;;;;;;;22.50;8.90;;;5.40;99.90;;;;;;5036939;28;20189;-85
2023/10/16 08:31:45;;;;;;;13.52;8.65;;;5.60;99.90;;;;;;5037004;28;20185;-84
2023/10/16 08:34:21;;;;;;;14.25;8.15;;;5.70;99.90;;;;;;5036647;28;20234;-84
2023/10/16 08:36:50;;;;;;;11.25;7.75;;;5.90;99.90;;;;;;5032913;28;20229;-84
2023/10/16 08:39:17;;;;;;;14.73;6.40;;;5.90;99.90;;;;;;5017693;28;20284;-85
2023/10/16 08:41:42;;;;;;;11.65;7.25;;;6.00;99.90;;;;;;5038410;28;20184;-85
2023/10/16 08:44:21;;;;;;;16.17;7.97;;;6.10;99.90;;;;;;5019892;28;20194;-85
2023/10/16 08:49:23;;;;;;;13.07;8.85;;;6.40;99.90;;;;;;5054835;28;20268;-86
2023/10/16 08:52:04;;;;;;;13.27;6.95;;;6.60;99.90;;;;;;5036440;28;20233;-86
2023/10/16 08:55:00;;;;;;;15.40;8.20;;;6.60;99.90;;;;;;5036471;28;20178;-84
2023/10/16 08:57:25;;;;;;;26.70;10.40;;;6.90;99.90;;;;;;5054204;28;20213;-87
2023/10/16 08:59:52;;;;;;;23.02;12.82;;;7.10;99.90;;;;;;5046634;28;20190;-86
2023/10/16 09:02:20;;;;;;;26.67;14.38;;;7.60;99.90;;;;;;5033316;28;20189;-85
2023/10/16 09:04:52;;;;;;;24.05;12.95;;;8.00;99.90;;;;;;5054337;28;20177;-86
2023/10/16 09:07:18;;;;;;;20.13;12.80;;;8.40;99.90;;;;;;5040220;28;20185;-85
2023/10/16 09:09:48;;;;;;;24.20;11.07;;;8.70;99.90;;;;;;5040274;28;20702;-86
2023/10/16 09:12:26;;;;;;;12.43;8.80;;;9.00;99.90;;;;;;5008592;28;20185;-85
2023/10/16 09:14:52;;;;;;;14.98;8.35;;;9.10;99.90;;;;;;5007878;28;20198;-86
2023/10/16 09:17:27;;;;;;;16.08;7.88;;;9.30;99.90;;;;;;5003647;28;20347;-85
2023/10/16 09:19:53;;;;;;;14.00;6.43;;;9.40;99.90;;;;;;5038547;28;20173;-84
2023/10/16 09:22:23;;;;;;;7.50;5.10;;;9.50;99.90;;;;;;5003980;28;20798;-84
2023/10/16 09:24:51;;;;;;;12.77;7.53;;;9.60;99.90;;;;;;5020795;28;20413;-85
2023/10/16 09:27:22;;;;;;;9.90;6.90;;;10.30;99.90;;;;;;5025041;28;20421;-86
2023/10/16 09:29:53;;;;;;;8.53;5.57;;;10.60;99.90;;;;;;5031506;28;20496;-85
2023/10/16 09:32:27;;;;;;;8.90;5.60;;;11.20;99.90;;;;;;5032606;28;20420;-86
2023/10/16 09:34:54;;;;;;;10.17;5.63;;;11.50;99.90;;;;;;5039417;28;20780;-86
2023/10/16 09:37:29;;;;;;;10.23;4.87;;;12.20;99.90;;;;;;5039411;28;20582;-86
2023/10/16 09:39:56;;;;;;;8.70;4.80;;;12.00;99.90;;;;;;5057246;28;20411;-86
2023/10/16 09:42:24;;;;;;;5.10;4.07;;;12.30;99.90;;;;;;5023808;28;20439;-86
2023/10/16 09:45:06;;;;;;;10.07;4.63;;;12.00;99.90;;;;;;5031148;28;20433;-85
2023/10/16 09:47:38;;;;;;;7.97;4.30;;;12.00;99.90;;;;;;5037468;28;20726;-85
2023/10/16 09:50:16;;;;;;;6.70;3.70;;;11.80;99.90;;;;;;5038460;28;20405;-86
2023/10/16 09:52:45;;;;;;;9.33;4.00;;;11.70;99.90;;;;;;5038910;28;20888;-85
2023/10/16 09:55:12;;;;;;;7.40;3.87;;;11.50;99.90;;;;;;5039340;28;20522;-86
2023/10/16 09:57:52;;;;;;;5.40;3.43;;;11.70;99.90;;;;;;5038583;28;20673;-85
2023/10/16 10:00:28;;;;;;;6.67;4.00;;;11.80;99.90;;;;;;5038800;28;20431;-84
2023/10/16 10:03:14;;;;;;;6.43;3.67;;;12.10;99.90;;;;;;5056626;28;20400;-86
2023/10/16 10:08:27;;;;;;;9.63;4.50;;;12.80;99.90;;;;;;5056006;28;20442;-86
2023/10/16 10:14:09;;;;;;;5.80;3.40;;;12.80;99.90;;;;;;5039229;28;20621;-86
2023/10/16 10:16:37;;;;;;;6.10;3.90;;;13.30;99.90;;;;;;5036840;28;20499;-85
2023/10/16 10:19:32;;;;;;;10.83;3.57;;;14.10;99.90;;;;;;5037318;28;20480;-86
2023/10/16 10:22:06;;;;;;;9.03;3.90;;;14.30;99.90;;;;;;5046852;28;20435;-86
2023/10/16 10:24:35;;;;;;;7.57;4.10;;;14.60;99.90;;;;;;5037583;28;20402;-87
2023/10/16 10:27:11;;;;;;;7.37;3.70;;;14.40;99.90;;;;;;5036343;28;20442;-88
2023/10/16 10:29:41;;;;;;;7.23;4.60;;;14.70;99.90;;;;;;5041482;28;20424;-87
2023/10/16 10:32:12;;;;;;;9.20;5.10;;;14.50;99.90;;;;;;5037682;28;20459;-85
2023/10/16 10:34:38;;;;;;;10.90;4.70;;;14.40;99.90;;;;;;5038364;28;20474;-86
2023/10/16 10:37:45;;;;;;;9.13;4.40;;;14.30;99.90;;;;;;5032689;28;20562;-86
2023/10/16 10:40:26;;;;;;;7.63;4.60;;;14.80;99.90;;;;;;5036376;28;20174;-86
2023/10/16 10:42:55;;;;;;;9.80;4.07;;;14.40;99.90;;;;;;5021793;28;20523;-86
2023/10/16 10:45:39;;;;;;;7.27;4.60;;;14.20;99.90;;;;;;5055359;28;20908;-87
2023/10/16 10:48:09;;;;;;;9.13;4.80;;;14.20;99.90;;;;;;5038060;28;20410;-85
2023/10/16 10:50:38;;;;;;;9.33;5.40;;;14.50;99.90;;;;;;5057027;28;20383;-86
2023/10/16 10:53:13;;;;;;;8.63;4.63;;;14.70;99.90;;;;;;5024086;28;20891;-86
2023/10/16 10:55:58;;;;;;;12.37;5.40;;;14.40;99.90;;;;;;5038778;28;20386;-86
2023/10/16 10:58:31;;;;;;;13.83;4.97;;;14.00;99.90;;;;;;5023495;28;20564;-87
2023/10/16 11:03:45;;;;;;;11.33;5.73;;;14.40;99.90;;;;;;5055923;28;20871;-86
2023/10/16 11:06:22;;;;;;;10.70;6.60;;;14.50;99.90;;;;;;5022884;28;20550;-86
2023/10/16 11:08:53;;;;;;;7.83;5.80;;;14.40;99.90;;;;;;5038098;28;20424;-87
2023/10/16 11:11:19;;;;;;;10.57;6.47;;;14.40;99.90;;;;;;5055503;28;20419;-87
2023/10/16 11:13:48;;;;;;;8.33;6.90;;;14.50;99.90;;;;;;5020290;28;20427;-86
2023/10/16 11:16:17;;;;;;;12.97;7.37;;;14.60;99.90;;;;;;5055183;28;20177;-87
2023/10/16 11:19:08;;;;;;;9.40;5.70;;;15.30;99.90;;;;;;5037910;28;20418;-87
2023/10/16 11:21:35;;;;;;;7.27;5.53;;;15.60;99.90;;;;;;5021744;28;20826;-87
2023/10/16 11:24:05;;;;;;;9.80;5.80;;;15.50;99.90;;;;;;5020653;28;20407;-87
2023/10/16 11:26:32;;;;;;;7.60;5.10;;;15.60;99.90;;;;;;5037621;28;20896;-87
2023/10/16 11:29:00;;;;;;;11.20;5.47;;;15.50;99.90;;;;;;5038111;28;20419;-86
2023/10/16 11:31:26;;;;;;;10.07;4.90;;;15.70;99.90;;;;;;5022124;28;20395;-84
2023/10/16 11:34:03;;;;;;;8.47;5.67;;;15.70;99.90;;;;;;5055255;28;20841;-84
2023/10/16 11:36:30;;;;;;;9.80;5.30;;;16.00;99.90;;;;;;5022849;28;20405;-85
2023/10/16 11:39:03;;;;;;;6.80;4.80;;;16.00;99.90;;;;;;5037244;28;20442;-84
2023/10/16 11:41:32;;;;;;;9.50;4.93;;;16.20;99.90;;;;;;5055268;28;20481;-83
2023/10/16 11:44:01;;;;;;;7.00;5.30;;;16.30;99.90;;;;;;5054587;28;20427;-85
2023/10/16 11:46:28;;;;;;;9.20;4.00;;;16.50;99.90;;;;;;5038285;28;20455;-84
2023/10/16 11:52:08;;;;;;;11.37;5.37;;;16.60;99.90;;;;;;5056297;28;20456;-84
2023/10/16 11:54:35;;;;;;;16.60;6.73;;;17.00;99.90;;;;;;5021239;28;20407;-84
2023/10/16 11:57:01;;;;;;;10.00;4.90;;;17.00;99.90;;;;;;5054073;28;20467;-84
2023/10/16 11:59:28;;;;;;;4.63;3.17;;;17.30;99.90;;;;;;5052929;28;20435;-85
2023/10/16 12:01:59;;;;;;;21.27;4.53;;;17.60;99.90;;;;;;5053975;28;20173;-86
2023/10/16 12:04:26;;;;;;;4.23;2.83;;;17.40;99.90;;;;;;5036297;28;20420;-85
2023/10/16 12:06:52;;;;;;;4.93;3.27;;;17.50;99.90;;;;;;5053857;28;20428;-85
2023/10/16 12:09:21;;;;;;;4.00;2.90;;;17.50;99.90;;;;;;5053922;28;20391;-85
2023/10/16 12:11:52;;;;;;;4.67;2.67;;;17.50;99.90;;;;;;5035638;28;20402;-85
2023/10/16 12:14:18;;;;;;;14.63;3.60;;;17.70;99.90;;;;;;5036186;28;20390;-85
2023/10/16 12:16:46;;;;;;;7.33;2.60;;;17.70;99.90;;;;;;5020035;28;20450;-85
2023/10/16 12:19:16;;;;;;;9.63;3.80;;;17.90;99.90;;;;;;5036214;28;20197;-86
2023/10/16 12:21:43;;;;;;;24.00;4.60;;;17.80;99.90;;;;;;5020508;28;20424;-85
2023/10/16 12:24:12;;;;;;;4.80;2.90;;;17.20;99.90;;;;;;5053960;28;20771;-85
2023/10/16 12:26:40;;;;;;;4.83;2.50;;;17.00;99.90;;;;;;5053855;28;20419;-85
2023/10/16 12:29:08;;;;;;;8.13;2.87;;;17.10;99.90;;;;;;5053647;28;20420;-85
2023/10/16 12:31:34;;;;;;;42.40;8.23;;;17.20;99.90;;;;;;5019864;28;20529;-85
2023/10/16 12:33:59;;;;;;;4.37;2.80;;;17.00;99.90;;;;;;5019350;28;20455;-85
2023/10/16 12:36:26;;;;;;;18.43;3.67;;;17.10;99.90;;;;;;5033224;28;20453;-84
2023/10/16 12:38:53;;;;;;;16.13;3.93;;;17.10;99.90;;;;;;4998809;28;20234;-85
2023/10/16 12:41:20;;;;;;;5.10;3.20;;;17.20;99.90;;;;;;5015886;28;20392;-85
2023/10/16 12:43:46;;;;;;;5.70;2.80;;;17.00;99.90;;;;;;5016710;28;20387;-85
2023/10/16 12:46:12;;;;;;;4.27;3.00;;;16.80;99.90;;;;;;5014310;28;20425;-85
2023/10/16 12:48:38;;;;;;;6.03;3.30;;;17.00;99.90;;;;;;4981031;28;20517;-85
2023/10/16 12:51:07;;;;;;;4.60;2.87;;;16.70;99.90;;;;;;4980801;28;20183;-85
2023/10/16 12:53:33;;;;;;;4.80;2.70;;;16.80;99.90;;;;;;4997546;28;20628;-85
2023/10/16 12:55:59;;;;;;;5.97;3.30;;;16.70;99.90;;;;;;4998009;28;20397;-85
2023/10/16 12:58:28;;;;;;;4.60;3.77;;;16.50;99.90;;;;;;4981017;28;20219;-85
2023/10/16 13:00:57;;;;;;;7.33;3.10;;;16.40;99.90;;;;;;4980709;28;20926;-85
2023/10/16 13:03:23;;;;;;;5.40;3.10;;;16.40;99.90;;;;;;5012992;28;20493;-85
2023/10/16 13:05:49;;;;;;;7.10;2.87;;;16.70;99.90;;;;;;5000104;28;20429;-85
2023/10/16 13:08:17;;;;;;;5.63;3.40;;;16.60;99.90;;;;;;5016142;28;20187;-86
2023/10/16 13:10:44;;;;;;;6.50;4.13;;;16.30;99.90;;;;;;5015902;28;20187;-84
2023/10/16 13:13:09;;;;;;;4.07;3.20;;;16.20;99.90;;;;;;5017351;28;20414;-85
2023/10/16 13:15:35;;;;;;;6.67;3.50;;;16.10;99.90;;;;;;4999982;28;20432;-86
2023/10/16 13:18:01;;;;;;;4.50;3.30;;;16.30;99.90;;;;;;5016024;28;20756;-85
2023/10/16 13:20:28;;;;;;;11.70;3.40;;;16.00;99.90;;;;;;5017534;28;20175;-85
2023/10/16 13:22:55;;;;;;;7.27;3.13;;;16.10;99.90;;;;;;5016340;28;20430;-85
2023/10/16 13:25:30;;;;;;;6.07;3.70;;;16.10;99.90;;;;;;5016090;28;20532;-85
2023/10/16 13:27:57;;;;;;;9.70;4.13;;;16.00;99.90;;;;;;5015823;28;20823;-85
2023/10/16 13:30:23;;;;;;;6.23;4.13;;;16.00;99.90;;;;;;5016181;28;20472;-85
2023/10/16 13:32:49;;;;;;;7.00;4.20;;;16.10;99.90;;;;;;4999488;28;20790;-85
2023/10/16 13:35:20;;;;;;;10.47;5.13;;;16.00;99.90;;;;;;5000001;28;20183;-85
2023/10/16 13:37:47;;;;;;;5.87;3.80;;;16.00;99.90;;;;;;5015196;28;20522;-85
2023/10/16 13:40:20;;;;;;;7.20;4.40;;;15.90;99.90;;;;;;5007505;28;20435;-85
2023/10/16 13:42:48;;;;;;;9.40;4.90;;;15.80;99.90;;;;;;4995880;28;20458;-84
2023/10/16 13:45:14;;;;;;;7.20;4.63;;;15.60;99.90;;;;;;4996238;28;20423;-85
2023/10/16 13:47:42;;;;;;;8.20;4.17;;;15.60;99.90;;;;;;4996153;28;20521;-85
2023/10/16 13:50:13;;;;;;;5.93;3.70;;;15.50;99.90;;;;;;5012558;28;20433;-85
2023/10/16 13:52:43;;;;;;;6.97;3.53;;;15.50;99.90;;;;;;4995126;28;20438;-85
2023/10/16 13:55:12;;;;;;;6.80;2.73;;;15.70;99.90;;;;;;4997361;28;20434;-85
2023/10/16 13:57:42;;;;;;;7.70;3.90;;;15.60;99.90;;;;;;4995881;28;20833;-85
2023/10/16 14:00:28;;;;;;;4.67;3.13;;;15.60;99.90;;;;;;5011637;28;20437;-86
2023/10/16 14:02:55;;;;;;;6.70;2.83;;;15.30;99.90;;;;;;5021872;28;20421;-85
2023/10/16 14:05:21;;;;;;;5.73;3.70;;;15.20;99.90;;;;;;5012451;28;20487;-85
2023/10/16 14:07:47;;;;;;;5.60;3.40;;;15.20;99.90;;;;;;5020175;28;20854;-85
2023/10/16 14:10:13;;;;;;;4.57;3.60;;;15.10;99.90;;;;;;5018055;28;20317;-85
2023/10/16 14:12:41;;;;;;;7.30;3.10;;;15.40;99.90;;;;;;5017533;28;20535;-85
2023/10/16 14:15:15;;;;;;;4.40;2.73;;;15.30;99.90;;;;;;5000565;28;20788;-85
2023/10/16 14:17:43;;;;;;;4.60;2.83;;;15.20;99.90;;;;;;5017258;28;20503;-86
2023/10/16 14:20:12;;;;;;;2.73;2.17;;;15.30;99.90;;;;;;4999892;28;20441;-85
2023/10/16 14:22:47;;;;;;;4.10;2.80;;;15.10;99.90;;;;;;5001196;28;20425;-85
2023/10/16 14:25:13;;;;;;;6.00;2.50;;;15.20;99.90;;;;;;5018673;28;20489;-85
2023/10/16 14:27:39;;;;;;;6.07;2.57;;;15.40;99.90;;;;;;5017279;28;20433;-85
2023/10/16 14:30:08;;;;;;;4.03;1.70;;;15.60;99.90;;;;;;5018237;28;20406;-85
2023/10/16 14:32:34;;;;;;;4.60;1.93;;;15.50;99.90;;;;;;5016871;28;20859;-85
2023/10/16 14:35:00;;;;;;;8.53;2.10;;;15.30;99.90;;;;;;5000111;28;20425;-84
2023/10/16 14:37:26;;;;;;;4.73;1.97;;;15.20;99.90;;;;;;5015370;28;20819;-85
2023/10/16 14:39:56;;;;;;;2.57;1.90;;;15.40;99.90;;;;;;5015297;28;20182;-85
2023/10/16 14:42:22;;;;;;;3.57;1.93;;;15.40;99.90;;;;;;5014521;28;20194;-85
2023/10/16 14:44:48;;;;;;;6.97;2.93;;;15.30;99.90;;;;;;4998620;28;20411;-84
2023/10/16 14:47:15;;;;;;;5.37;2.90;;;15.30;99.90;;;;;;4998870;28;20282;-86
2023/10/16 14:49:41;;;;;;;5.60;2.30;;;15.50;99.90;;;;;;5014965;28;20191;-85
2023/10/16 14:52:07;;;;;;;7.27;2.57;;;15.20;99.90;;;;;;5014518;28;20424;-85
2023/10/16 14:54:33;;;;;;;4.17;3.00;;;15.10;99.90;;;;;;5015104;28;20489;-86
2023/10/16 14:57:01;;;;;;;5.87;3.20;;;14.90;99.90;;;;;;5015871;28;20206;-85
2023/10/16 14:59:27;;;;;;;3.77;2.60;;;14.80;99.90;;;;;;5016082;28;20607;-85
2023/10/16 15:01:54;;;;;;;3.00;1.73;;;14.80;99.90;;;;;;5015329;28;20533;-85
2023/10/16 15:04:20;;;;;;;4.70;1.77;;;14.80;99.90;;;;;;5015465;28;20662;-85
2023/10/16 15:06:46;;;;;;;3.37;1.90;;;14.60;99.90;;;;;;5015878;28;20430;-86